sensor_id;sensor_type;location;lat;lon;timestamp;pressure;altitude;pressure_sealevel;temperature;humidity
45793;BME280;31495;42.740;22.908;2022-09-16T00:00:11;92732.19;;;17.54;65.97
45793;BME280;31495;42.740;22.908;2022-09-16T00:01:15;92752.84;;;17.66;66.01
45793;BME280;31495;42.740;22.908;2022-09-16T00:02:16;92700.28;;;17.31;65.69
45793;BME280;31495;42.740;22.908;2022-09-16T00:03:16;92736.91;;;17.52;65.97
45793;BME280;31495;42.740;22.908;2022-09-16T00:04:16;92731.69;;;17.47;66.14
45793;BME280;31495;42.740;22.908;2022-09-16T00:05:16;92737.94;;;17.51;66.06
45793;BME280;31495;42.740;22.908;2022-09-16T00:06:26;92720.16;;;17.37;66.12
45793;BME280;31495;42.740;22.908;2022-09-16T00:07:28;92753.38;;;17.57;66.42
45793;BME280;31495;42.740;22.908;2022-09-16T00:08:28;92746.84;;;17.55;66.65
45793;BME280;31495;42.740;22.908;2022-09-16T00:09:27;92748.94;;;17.58;67.02
45793;BME280;31495;42.740;22.908;2022-09-16T00:10:27;92750.75;;;17.57;67.24
45793;BME280;31495;42.740;22.908;2022-09-16T00:11:27;92708.66;;;17.28;66.98
45793;BME280;31495;42.740;22.908;2022-09-16T00:12:27;92749.47;;;17.60;66.40
45793;BME280;31495;42.740;22.908;2022-09-16T00:13:26;92723.31;;;17.39;66.39
45793;BME280;31495;42.740;22.908;2022-09-16T00:14:26;92715.47;;;17.34;66.14
45793;BME280;31495;42.740;22.908;2022-09-16T00:15:25;92715.97;;;17.26;66.83
45793;BME280;31495;42.740;22.908;2022-09-16T00:16:27;92751.53;;;17.48;66.86
45793;BME280;31495;42.740;22.908;2022-09-16T00:17:27;92752.88;;;17.45;66.83
45793;BME280;31495;42.740;22.908;2022-09-16T00:18:28;92688.53;;;17.03;66.99
45793;BME280;31495;42.740;22.908;2022-09-16T00:19:27;92726.19;;;17.27;66.71
45793;BME280;31495;42.740;22.908;2022-09-16T00:20:27;92746.31;;;17.42;67.34
45793;BME280;31495;42.740;22.908;2022-09-16T00:21:27;92701.88;;;17.17;66.32
45793;BME280;31495;42.740;22.908;2022-09-16T00:22:27;92704.19;;;17.13;66.50
45793;BME280;31495;42.740;22.908;2022-09-16T00:23:27;92731.66;;;17.26;66.83
45793;BME280;31495;42.740;22.908;2022-09-16T00:24:26;92741.88;;;17.27;67.28
45793;BME280;31495;42.740;22.908;2022-09-16T00:25:26;92711.00;;;17.04;67.21
45793;BME280;31495;42.740;22.908;2022-09-16T00:26:25;92746.84;;;17.24;67.55
45793;BME280;31495;42.740;22.908;2022-09-16T00:27:25;92696.88;;;16.95;67.31
45793;BME280;31495;42.740;22.908;2022-09-16T00:28:25;92725.41;;;17.17;67.25
45793;BME280;31495;42.740;22.908;2022-09-16T00:29:24;92741.34;;;17.25;67.59
45793;BME280;31495;42.740;22.908;2022-09-16T00:30:24;92721.22;;;17.11;67.27
45793;BME280;31495;42.740;22.908;2022-09-16T00:31:23;92719.09;;;17.13;67.67
45793;BME280;31495;42.740;22.908;2022-09-16T00:32:22;92703.69;;;17.01;67.78
45793;BME280;31495;42.740;22.908;2022-09-16T00:33:23;92714.66;;;17.13;67.84
45793;BME280;31495;42.740;22.908;2022-09-16T00:34:22;92707.34;;;17.10;68.36
45793;BME280;31495;42.740;22.908;2022-09-16T00:35:22;92713.09;;;17.17;67.77
45793;BME280;31495;42.740;22.908;2022-09-16T00:36:21;92718.59;;;17.16;67.84
45793;BME280;31495;42.740;22.908;2022-09-16T00:37:21;92717.28;;;17.13;67.77
45793;BME280;31495;42.740;22.908;2022-09-16T00:38:20;92714.94;;;17.17;67.25
45793;BME280;31495;42.740;22.908;2022-09-16T00:39:19;92708.41;;;17.09;66.95
45793;BME280;31495;42.740;22.908;2022-09-16T00:40:19;92706.28;;;17.01;67.00
45793;BME280;31495;42.740;22.908;2022-09-16T00:41:21;92732.69;;;17.15;67.45
45793;BME280;31495;42.740;22.908;2022-09-16T00:42:21;92725.38;;;17.06;67.77
45793;BME280;31495;42.740;22.908;2022-09-16T00:43:20;92743.66;;;17.12;67.49
45793;BME280;31495;42.740;22.908;2022-09-16T00:45:54;92697.84;;;16.78;68.10
45793;BME280;31495;42.740;22.908;2022-09-16T00:46:55;92713.06;;;16.92;68.12
45793;BME280;31495;42.740;22.908;2022-09-16T00:48:04;92734.25;;;17.00;68.29
45793;BME280;31495;42.740;22.908;2022-09-16T00:49:24;92739.75;;;17.09;68.53
45793;BME280;31495;42.740;22.908;2022-09-16T00:50:37;92737.91;;;17.04;68.28
45793;BME280;31495;42.740;22.908;2022-09-16T00:51:40;92660.97;;;16.54;68.30
45793;BME280;31495;42.740;22.908;2022-09-16T00:52:41;92721.97;;;16.90;67.81
45793;BME280;31495;42.740;22.908;2022-09-16T00:53:45;92714.09;;;16.85;68.32
45793;BME280;31495;42.740;22.908;2022-09-16T00:54:47;92718.03;;;16.88;68.12
45793;BME280;31495;42.740;22.908;2022-09-16T00:55:49;92681.13;;;16.74;68.43
45793;BME280;31495;42.740;22.908;2022-09-16T00:56:51;92721.16;;;16.95;68.45
45793;BME280;31495;42.740;22.908;2022-09-16T00:57:53;92699.91;;;16.66;68.52
45793;BME280;31495;42.740;22.908;2022-09-16T01:00:12;92735.81;;;16.91;68.13
45793;BME280;31495;42.740;22.908;2022-09-16T01:01:12;92738.16;;;16.93;68.33
45793;BME280;31495;42.740;22.908;2022-09-16T01:02:16;92736.31;;;16.93;68.52
45793;BME280;31495;42.740;22.908;2022-09-16T01:03:17;92741.56;;;16.93;68.60
45793;BME280;31495;42.740;22.908;2022-09-16T01:05:23;92713.78;;;16.77;68.46
45793;BME280;31495;42.740;22.908;2022-09-16T01:06:25;92719.31;;;16.85;68.44
45793;BME280;31495;42.740;22.908;2022-09-16T01:07:48;92740.53;;;16.99;68.42
45793;BME280;31495;42.740;22.908;2022-09-16T01:08:49;92729.56;;;17.02;67.98
45793;BME280;31495;42.740;22.908;2022-09-16T01:09:48;92735.03;;;16.96;67.91
45793;BME280;31495;42.740;22.908;2022-09-16T01:10:48;92733.72;;;16.88;68.39
45793;BME280;31495;42.740;22.908;2022-09-16T01:11:48;92744.16;;;16.88;68.49
45793;BME280;31495;42.740;22.908;2022-09-16T01:12:56;92716.13;;;16.73;68.45
45793;BME280;31495;42.740;22.908;2022-09-16T01:13:58;92722.91;;;16.74;68.62
45793;BME280;31495;42.740;22.908;2022-09-16T01:15:18;92747.03;;;16.86;68.28
45793;BME280;31495;42.740;22.908;2022-09-16T01:16:25;92739.66;;;16.78;68.43
45793;BME280;31495;42.740;22.908;2022-09-16T01:19:56;92728.44;;;16.78;68.96
45793;BME280;31495;42.740;22.908;2022-09-16T01:27:43;92744.41;;;16.86;68.95
45793;BME280;31495;42.740;22.908;2022-09-16T01:31:01;92686.81;;;16.50;69.52
45793;BME280;31495;42.740;22.908;2022-09-16T01:32:28;92691.25;;;16.50;69.46
45793;BME280;31495;42.740;22.908;2022-09-16T01:40:02;92720.63;;;16.88;69.27
45793;BME280;31495;42.740;22.908;2022-09-16T01:45:06;92715.41;;;16.88;68.87
45793;BME280;31495;42.740;22.908;2022-09-16T01:46:37;92692.13;;;16.76;69.20
45793;BME280;31495;42.740;22.908;2022-09-16T01:49:17;92661.78;;;16.60;69.08
45793;BME280;31495;42.740;22.908;2022-09-16T01:50:45;92708.59;;;16.87;69.02
45793;BME280;31495;42.740;22.908;2022-09-16T01:51:57;92689.25;;;16.72;68.78
45793;BME280;31495;42.740;22.908;2022-09-16T01:54:40;92697.84;;;16.78;68.39
45793;BME280;31495;42.740;22.908;2022-09-16T01:55:47;92718.03;;;16.88;68.14
45793;BME280;31495;42.740;22.908;2022-09-16T01:57:17;92702.59;;;16.86;68.32
45793;BME280;31495;42.740;22.908;2022-09-16T01:58:40;92693.41;;;16.73;68.63
45793;BME280;31495;42.740;22.908;2022-09-16T01:59:47;92708.06;;;16.80;68.39
45793;BME280;31495;42.740;22.908;2022-09-16T02:00:52;92707.78;;;16.76;68.36
45793;BME280;31495;42.740;22.908;2022-09-16T02:03:05;92715.66;;;16.86;68.85
45793;BME280;31495;42.740;22.908;2022-09-16T02:04:12;92705.44;;;16.80;68.60
45793;BME280;31495;42.740;22.908;2022-09-16T02:05:35;92738.69;;;17.00;68.43
45793;BME280;31495;42.740;22.908;2022-09-16T02:06:37;92719.59;;;16.89;68.25
45793;BME280;31495;42.740;22.908;2022-09-16T02:07:42;92730.84;;;17.05;68.36
45793;BME280;31495;42.740;22.908;2022-09-16T02:09:02;92730.09;;;17.09;68.54
45793;BME280;31495;42.740;22.908;2022-09-16T02:10:33;92725.38;;;17.06;69.12
45793;BME280;31495;42.740;22.908;2022-09-16T02:11:36;92701.84;;;16.91;69.04
45793;BME280;31495;42.740;22.908;2022-09-16T02:12:39;92706.28;;;16.96;69.19
45793;BME280;31495;42.740;22.908;2022-09-16T02:14:44;92727.72;;;17.08;68.04
45793;BME280;31495;42.740;22.908;2022-09-16T02:15:25;92681.41;;;16.72;68.59
45793;BME280;31495;42.740;22.908;2022-09-16T02:16:40;92726.13;;;17.02;68.89
45793;BME280;31495;42.740;22.908;2022-09-16T02:17:46;92715.44;;;17.03;69.04
45793;BME280;31495;42.740;22.908;2022-09-16T02:18:51;92714.41;;;17.04;69.07
45793;BME280;31495;42.740;22.908;2022-09-16T02:19:56;92731.66;;;17.05;69.24
45793;BME280;31495;42.740;22.908;2022-09-16T02:21:00;92727.72;;;16.98;69.42
45793;BME280;31495;42.740;22.908;2022-09-16T02:22:07;92715.94;;;16.85;69.27
45793;BME280;31495;42.740;22.908;2022-09-16T02:23:15;92708.34;;;16.88;69.20
45793;BME280;31495;42.740;22.908;2022-09-16T02:24:18;92730.34;;;17.08;69.19
45793;BME280;31495;42.740;22.908;2022-09-16T02:25:20;92734.53;;;17.04;69.49
45793;BME280;31495;42.740;22.908;2022-09-16T02:26:26;92714.66;;;16.93;69.44
45793;BME280;31495;42.740;22.908;2022-09-16T02:27:28;92742.06;;;17.00;69.74
45793;BME280;31495;42.740;22.908;2022-09-16T02:28:32;92739.47;;;16.95;69.16
45793;BME280;31495;42.740;22.908;2022-09-16T02:29:39;92721.16;;;16.90;68.96
45793;BME280;31495;42.740;22.908;2022-09-16T02:30:44;92710.97;;;16.94;68.73
45793;BME280;31495;42.740;22.908;2022-09-16T02:31:46;92690.03;;;16.83;69.24
45793;BME280;31495;42.740;22.908;2022-09-16T02:32:50;92699.75;;;16.88;69.10
45793;BME280;31495;42.740;22.908;2022-09-16T02:33:57;92672.00;;;16.71;69.03
45793;BME280;31495;42.740;22.908;2022-09-16T02:35:00;92696.03;;;16.84;69.41
45793;BME280;31495;42.740;22.908;2022-09-16T02:36:02;92719.34;;;16.96;69.62
45793;BME280;31495;42.740;22.908;2022-09-16T02:37:07;92723.53;;;17.02;69.61
45793;BME280;31495;42.740;22.908;2022-09-16T02:38:14;92731.91;;;17.04;69.46
45793;BME280;31495;42.740;22.908;2022-09-16T02:39:19;92704.19;;;16.87;69.31
45793;BME280;31495;42.740;22.908;2022-09-16T02:40:28;92731.66;;;17.05;69.13
45793;BME280;31495;42.740;22.908;2022-09-16T02:41:30;92685.56;;;16.73;69.50
45793;BME280;31495;42.740;22.908;2022-09-16T02:42:29;92720.91;;;16.97;69.59
45793;BME280;31495;42.740;22.908;2022-09-16T02:43:29;92721.69;;;16.92;69.77
45793;BME280;31495;42.740;22.908;2022-09-16T02:44:29;92740.78;;;17.03;69.99
45793;BME280;31495;42.740;22.908;2022-09-16T02:45:38;92748.38;;;17.15;69.58
45793;BME280;31495;42.740;22.908;2022-09-16T02:48:12;92751.50;;;17.12;69.53
45793;BME280;31495;42.740;22.908;2022-09-16T02:49:30;92764.06;;;17.15;69.26
45793;BME280;31495;42.740;22.908;2022-09-16T02:50:53;92759.91;;;17.19;69.33
45793;BME280;31495;42.740;22.908;2022-09-16T02:52:27;92742.88;;;17.06;69.26
45793;BME280;31495;42.740;22.908;2022-09-16T02:55:55;92760.16;;;17.22;69.73
45793;BME280;31495;42.740;22.908;2022-09-16T02:56:57;92767.50;;;17.25;68.73
45793;BME280;31495;42.740;22.908;2022-09-16T02:57:57;92704.66;;;16.79;68.66
45793;BME280;31495;42.740;22.908;2022-09-16T02:58:57;92775.34;;;17.25;68.73
45793;BME280;31495;42.740;22.908;2022-09-16T02:59:57;92744.97;;;17.04;69.22
45793;BME280;31495;42.740;22.908;2022-09-16T03:00:57;92791.03;;;17.36;68.99
45793;BME280;31495;42.740;22.908;2022-09-16T03:01:58;92795.47;;;17.35;69.34
45793;BME280;31495;42.740;22.908;2022-09-16T03:02:58;92795.47;;;17.35;69.61
45793;BME280;31495;42.740;22.908;2022-09-16T03:03:58;92789.69;;;17.23;69.67
45793;BME280;31495;42.740;22.908;2022-09-16T03:04:58;92782.09;;;17.11;69.61
45793;BME280;31495;42.740;22.908;2022-09-16T03:06:25;92805.13;;;17.19;69.94
45793;BME280;31495;42.740;22.908;2022-09-16T03:07:26;92789.16;;;17.11;70.26
45793;BME280;31495;42.740;22.908;2022-09-16T03:08:25;92797.53;;;17.18;70.07
45793;BME280;31495;42.740;22.908;2022-09-16T03:09:25;92745.50;;;17.01;70.49
45793;BME280;31495;42.740;22.908;2022-09-16T03:10:36;92759.63;;;17.15;70.83
45793;BME280;31495;42.740;22.908;2022-09-16T03:13:21;92705.47;;;16.95;69.49
45793;BME280;31495;42.740;22.908;2022-09-16T03:16:11;92746.84;;;17.24;69.54
45793;BME280;31495;42.740;22.908;2022-09-16T03:23:48;92754.69;;;17.24;70.06
45793;BME280;31495;42.740;22.908;2022-09-16T03:27:30;92676.47;;;16.92;70.45
45793;BME280;31495;42.740;22.908;2022-09-16T03:30:04;92693.22;;;17.01;70.30
45793;BME280;31495;42.740;22.908;2022-09-16T03:32:24;92691.66;;;17.10;70.28
45793;BME280;31495;42.740;22.908;2022-09-16T03:33:38;92696.66;;;17.17;70.31
45793;BME280;31495;42.740;22.908;2022-09-16T03:34:44;92698.19;;;17.18;70.67
45793;BME280;31495;42.740;22.908;2022-09-16T03:35:48;92680.94;;;17.12;70.60
45793;BME280;31495;42.740;22.908;2022-09-16T03:36:58;92706.84;;;17.23;70.24
45793;BME280;31495;42.740;22.908;2022-09-16T03:38:01;92677.81;;;17.09;70.56
45793;BME280;31495;42.740;22.908;2022-09-16T03:39:02;92654.53;;;16.93;70.53
45793;BME280;31495;42.740;22.908;2022-09-16T03:40:10;92674.69;;;17.07;70.34
45793;BME280;31495;42.740;22.908;2022-09-16T03:41:12;92666.84;;;17.07;70.23
45793;BME280;31495;42.740;22.908;2022-09-16T03:42:12;92682.78;;;17.16;70.10
45793;BME280;31495;42.740;22.908;2022-09-16T03:43:12;92673.38;;;17.15;70.33
45793;BME280;31495;42.740;22.908;2022-09-16T03:44:13;92678.88;;;17.14;70.38
45793;BME280;31495;42.740;22.908;2022-09-16T03:45:16;92662.13;;;17.09;70.50
45793;BME280;31495;42.740;22.908;2022-09-16T03:46:16;92674.94;;;17.21;70.05
45793;BME280;31495;42.740;22.908;2022-09-16T03:47:16;92698.19;;;17.28;70.81
45793;BME280;31495;42.740;22.908;2022-09-16T03:48:16;92673.91;;;17.07;70.80
45793;BME280;31495;42.740;22.908;2022-09-16T03:49:15;92695.06;;;17.21;70.99
45793;BME280;31495;42.740;22.908;2022-09-16T03:50:16;92703.69;;;17.26;70.55
45793;BME280;31495;42.740;22.908;2022-09-16T03:51:16;92685.66;;;17.15;70.48
45793;BME280;31495;42.740;22.908;2022-09-16T03:52:16;92677.81;;;17.09;70.57
45793;BME280;31495;42.740;22.908;2022-09-16T03:53:19;92699.53;;;17.20;70.57
45793;BME280;31495;42.740;22.908;2022-09-16T03:54:18;92692.97;;;17.23;70.37
45793;BME280;31495;42.740;22.908;2022-09-16T03:55:18;92685.13;;;17.13;70.70
45793;BME280;31495;42.740;22.908;2022-09-16T03:56:17;92688.53;;;17.18;70.22
45793;BME280;31495;42.740;22.908;2022-09-16T03:57:16;92682.50;;;17.18;70.14
45793;BME280;31495;42.740;22.908;2022-09-16T03:58:16;92667.34;;;17.09;69.04
45793;BME280;31495;42.740;22.908;2022-09-16T03:59:16;92700.28;;;17.21;68.66
45793;BME280;31495;42.740;22.908;2022-09-16T04:00:15;92686.97;;;17.12;68.82
45793;BME280;31495;42.740;22.908;2022-09-16T04:01:15;92691.66;;;17.10;68.58
45793;BME280;31495;42.740;22.908;2022-09-16T04:02:14;92690.34;;;17.13;68.51
45793;BME280;31495;42.740;22.908;2022-09-16T04:03:14;92704.75;;;17.20;68.10
45793;BME280;31495;42.740;22.908;2022-09-16T04:04:13;92667.88;;;17.01;67.70
45793;BME280;31495;42.740;22.908;2022-09-16T04:05:13;92702.91;;;17.21;67.84
45793;BME280;31495;42.740;22.908;2022-09-16T04:06:12;92664.22;;;16.97;67.71
45793;BME280;31495;42.740;22.908;2022-09-16T04:07:12;92684.34;;;17.07;67.70
45793;BME280;31495;42.740;22.908;2022-09-16T04:08:11;92707.88;;;17.22;67.47
45793;BME280;31495;42.740;22.908;2022-09-16T04:09:11;92697.94;;;17.19;67.63
45793;BME280;31495;42.740;22.908;2022-09-16T04:10:11;92688.25;;;17.15;66.91
45793;BME280;31495;42.740;22.908;2022-09-16T04:11:11;92670.22;;;17.08;66.45
45793;BME280;31495;42.740;22.908;2022-09-16T04:12:10;92691.69;;;17.25;65.45
45793;BME280;31495;42.740;22.908;2022-09-16T04:13:09;92692.97;;;17.28;65.19
45793;BME280;31495;42.740;22.908;2022-09-16T04:14:09;92684.84;;;17.30;65.06
45793;BME280;31495;42.740;22.908;2022-09-16T04:15:10;92689.81;;;17.36;65.21
45793;BME280;31495;42.740;22.908;2022-09-16T04:16:10;92702.66;;;17.53;64.94
45793;BME280;31495;42.740;22.908;2022-09-16T04:17:09;92697.94;;;17.50;65.25
45793;BME280;31495;42.740;22.908;2022-09-16T04:18:09;92699.00;;;17.59;66.13
45793;BME280;31495;42.740;22.908;2022-09-16T04:19:10;92705.00;;;17.60;66.33
45793;BME280;31495;42.740;22.908;2022-09-16T04:20:11;92689.06;;;17.51;65.13
45793;BME280;31495;42.740;22.908;2022-09-16T04:21:10;92669.19;;;17.45;64.50
45793;BME280;31495;42.740;22.908;2022-09-16T04:22:10;92707.59;;;17.70;64.23
45793;BME280;31495;42.740;22.908;2022-09-16T04:23:09;92689.31;;;17.55;63.84
45793;BME280;31495;42.740;22.908;2022-09-16T04:24:08;92687.47;;;17.55;64.04
45793;BME280;31495;42.740;22.908;2022-09-16T04:25:08;92701.31;;;17.71;63.27
45793;BME280;31495;42.740;22.908;2022-09-16T04:26:09;92701.81;;;17.78;62.51
45793;BME280;31495;42.740;22.908;2022-09-16T04:27:09;92694.75;;;17.74;63.14
45793;BME280;31495;42.740;22.908;2022-09-16T04:28:08;92684.28;;;17.74;62.70
45793;BME280;31495;42.740;22.908;2022-09-16T04:29:08;92680.38;;;17.76;63.83
45793;BME280;31495;42.740;22.908;2022-09-16T04:30:08;92695.56;;;17.90;64.97
45793;BME280;31495;42.740;22.908;2022-09-16T04:31:12;92695.81;;;17.88;65.24
45793;BME280;31495;42.740;22.908;2022-09-16T04:32:12;92692.94;;;17.85;65.80
45793;BME280;31495;42.740;22.908;2022-09-16T04:33:11;92696.84;;;17.87;65.77
45793;BME280;31495;42.740;22.908;2022-09-16T04:34:11;92707.59;;;17.91;65.80
45793;BME280;31495;42.740;22.908;2022-09-16T04:35:10;92696.59;;;17.83;66.15
45793;BME280;31495;42.740;22.908;2022-09-16T04:36:12;92693.69;;;17.85;65.86
45793;BME280;31495;42.740;22.908;2022-09-16T04:37:11;92717.00;;;17.97;65.58
45793;BME280;31495;42.740;22.908;2022-09-16T04:38:11;92701.56;;;17.85;65.50
45793;BME280;31495;42.740;22.908;2022-09-16T04:39:11;92713.03;;;18.15;62.04
45793;BME280;31495;42.740;22.908;2022-09-16T04:40:11;92724.53;;;18.24;61.89
45793;BME280;31495;42.740;22.908;2022-09-16T04:41:22;92725.78;;;18.42;61.02
45793;BME280;31495;42.740;22.908;2022-09-16T04:42:21;92681.34;;;18.11;60.40
45793;BME280;31495;42.740;22.908;2022-09-16T04:43:21;92733.59;;;18.47;60.02
45793;BME280;31495;42.740;22.908;2022-09-16T04:44:20;92709.00;;;18.38;59.67
45793;BME280;31495;42.740;22.908;2022-09-16T04:45:20;92730.94;;;18.58;59.07
45793;BME280;31495;42.740;22.908;2022-09-16T04:46:20;92717.06;;;18.57;60.02
45793;BME280;31495;42.740;22.908;2022-09-16T04:47:20;92704.00;;;18.52;59.56
45793;BME280;31495;42.740;22.908;2022-09-16T04:48:21;92689.59;;;18.54;59.85
45793;BME280;31495;42.740;22.908;2022-09-16T04:49:20;92689.53;;;18.65;59.00
45793;BME280;31495;42.740;22.908;2022-09-16T04:50:20;92703.63;;;18.74;58.75
45793;BME280;31495;42.740;22.908;2022-09-16T04:51:20;92724.31;;;18.86;59.03
45793;BME280;31495;42.740;22.908;2022-09-16T04:52:20;92704.94;;;18.71;59.57
45793;BME280;31495;42.740;22.908;2022-09-16T04:53:20;92723.22;;;18.82;60.25
45793;BME280;31495;42.740;22.908;2022-09-16T04:54:20;92680.16;;;18.53;59.83
45793;BME280;31495;42.740;22.908;2022-09-16T04:55:19;92689.53;;;18.65;59.52
45793;BME280;31495;42.740;22.908;2022-09-16T04:56:24;92716.44;;;18.86;60.86
45793;BME280;31495;42.740;22.908;2022-09-16T04:57:24;92686.88;;;18.70;61.68
45793;BME280;31495;42.740;22.908;2022-09-16T04:58:23;92690.28;;;18.70;61.85
45793;BME280;31495;42.740;22.908;2022-09-16T04:59:23;92723.22;;;18.87;62.12
45793;BME280;31495;42.740;22.908;2022-09-16T05:00:22;92704.16;;;18.76;61.23
45793;BME280;31495;42.740;22.908;2022-09-16T05:01:24;92719.34;;;18.84;61.43
45793;BME280;31495;42.740;22.908;2022-09-16T05:02:24;92718.78;;;18.82;61.79
45793;BME280;31495;42.740;22.908;2022-09-16T05:03:24;92732.91;;;18.91;62.70
45793;BME280;31495;42.740;22.908;2022-09-16T05:04:24;92696.28;;;18.76;62.54
45793;BME280;31495;42.740;22.908;2022-09-16T05:05:23;92710.41;;;18.85;63.17
45793;BME280;31495;42.740;22.908;2022-09-16T05:06:25;92675.63;;;18.64;63.43
45793;BME280;31495;42.740;22.908;2022-09-16T05:07:27;92686.38;;;18.68;63.95
45793;BME280;31495;42.740;22.908;2022-09-16T05:08:27;92692.66;;;18.67;63.73
45793;BME280;31495;42.740;22.908;2022-09-16T05:09:26;92657.94;;;18.41;64.04
45793;BME280;31495;42.740;22.908;2022-09-16T05:10:26;92716.97;;;18.78;64.00
45793;BME280;31495;42.740;22.908;2022-09-16T05:11:31;92680.38;;;18.57;63.69
45793;BME280;31495;42.740;22.908;2022-09-16T05:12:35;92665.22;;;18.49;63.72
45793;BME280;31495;42.740;22.908;2022-09-16T05:13:34;92707.56;;;18.71;63.67
45793;BME280;31495;42.740;22.908;2022-09-16T05:14:34;92678.31;;;18.54;63.76
45793;BME280;31495;42.740;22.908;2022-09-16T05:15:34;92691.88;;;18.66;63.66
45793;BME280;31495;42.740;22.908;2022-09-16T05:16:33;92698.13;;;18.70;63.99
45793;BME280;31495;42.740;22.908;2022-09-16T05:17:33;92720.38;;;18.78;64.13
45793;BME280;31495;42.740;22.908;2022-09-16T05:18:33;92711.47;;;18.79;64.39
45793;BME280;31495;42.740;22.908;2022-09-16T05:19:33;92700.47;;;18.72;64.60
45793;BME280;31495;42.740;22.908;2022-09-16T05:20:33;92703.88;;;18.78;64.51
45793;BME280;31495;42.740;22.908;2022-09-16T05:21:36;92707.50;;;18.82;65.06
45793;BME280;31495;42.740;22.908;2022-09-16T05:22:36;92703.59;;;18.79;64.93
45793;BME280;31495;42.740;22.908;2022-09-16T05:23:37;92689.00;;;18.68;64.75
45793;BME280;31495;42.740;22.908;2022-09-16T05:24:39;92711.72;;;18.83;65.14
45793;BME280;31495;42.740;22.908;2022-09-16T05:25:38;92672.53;;;18.57;64.88
45793;BME280;31495;42.740;22.908;2022-09-16T05:26:40;92694.94;;;18.79;64.82
45793;BME280;31495;42.740;22.908;2022-09-16T05:27:43;92700.19;;;18.79;64.74
45793;BME280;31495;42.740;22.908;2022-09-16T05:28:42;92686.38;;;18.68;64.77
45793;BME280;31495;42.740;22.908;2022-09-16T05:29:42;92685.03;;;18.70;65.02
45793;BME280;31495;42.740;22.908;2022-09-16T05:30:41;92672.22;;;18.64;64.91
45793;BME280;31495;42.740;22.908;2022-09-16T05:31:43;92684.78;;;18.67;64.91
45793;BME280;31495;42.740;22.908;2022-09-16T05:32:44;92690.25;;;18.76;64.99
45793;BME280;31495;42.740;22.908;2022-09-16T05:33:45;92691.03;;;18.76;65.04
45793;BME280;31495;42.740;22.908;2022-09-16T05:34:45;92676.91;;;18.72;65.05
45793;BME280;31495;42.740;22.908;2022-09-16T05:35:44;92687.63;;;18.81;64.84
45793;BME280;31495;42.740;22.908;2022-09-16T05:36:45;92691.00;;;18.81;65.12
45793;BME280;31495;42.740;22.908;2022-09-16T05:37:45;92666.97;;;18.69;65.53
45793;BME280;31495;42.740;22.908;2022-09-16T05:38:45;92675.84;;;18.73;65.62
45793;BME280;31495;42.740;22.908;2022-09-16T05:39:45;92672.16;;;18.74;66.05
45793;BME280;31495;42.740;22.908;2022-09-16T05:40:44;92677.94;;;18.76;66.13
45793;BME280;31495;42.740;22.908;2022-09-16T05:41:44;92682.91;;;18.78;66.14
45793;BME280;31495;42.740;22.908;2022-09-16T05:42:47;92678.72;;;18.77;66.17
45793;BME280;31495;42.740;22.908;2022-09-16T05:43:47;92682.38;;;18.76;66.22
45793;BME280;31495;42.740;22.908;2022-09-16T05:44:47;92686.31;;;18.78;65.90
45793;BME280;31495;42.740;22.908;2022-09-16T05:45:51;92680.78;;;18.80;66.19
45793;BME280;31495;42.740;22.908;2022-09-16T05:46:51;92699.88;;;18.90;66.21
45793;BME280;31495;42.740;22.908;2022-09-16T05:47:50;92651.03;;;18.60;66.05
45793;BME280;31495;42.740;22.908;2022-09-16T05:48:50;92677.63;;;18.83;66.35
45793;BME280;31495;42.740;22.908;2022-09-16T05:49:50;92672.44;;;18.78;66.38
45793;BME280;31495;42.740;22.908;2022-09-16T05:51:04;92694.34;;;18.97;66.43
45793;BME280;31495;42.740;22.908;2022-09-16T05:52:04;92687.81;;;18.95;66.35
45793;BME280;31495;42.740;22.908;2022-09-16T05:53:03;92697.22;;;19.01;66.56
45793;BME280;31495;42.740;22.908;2022-09-16T05:54:03;92656.16;;;18.81;66.38
45793;BME280;31495;42.740;22.908;2022-09-16T05:55:03;92672.84;;;18.95;66.30
45793;BME280;31495;42.740;22.908;2022-09-16T05:56:06;92693.97;;;19.14;66.27
45793;BME280;31495;42.740;22.908;2022-09-16T05:57:09;92666.28;;;18.98;65.33
45793;BME280;31495;42.740;22.908;2022-09-16T05:58:08;92639.34;;;18.87;65.96
45793;BME280;31495;42.740;22.908;2022-09-16T05:59:10;92684.84;;;19.06;65.54
45793;BME280;31495;42.740;22.908;2022-09-16T06:00:10;92640.44;;;18.81;65.42
45793;BME280;31495;42.740;22.908;2022-09-16T06:01:15;92684.53;;;19.13;65.67
45793;BME280;31495;42.740;22.908;2022-09-16T06:02:15;92678.56;;;19.07;65.49
45793;BME280;31495;42.740;22.908;2022-09-16T06:03:15;92681.44;;;19.06;65.51
45793;BME280;31495;42.740;22.908;2022-09-16T06:04:15;92690.28;;;19.20;65.50
45793;BME280;31495;42.740;22.908;2022-09-16T06:05:15;92691.81;;;19.21;64.76
45793;BME280;31495;42.740;22.908;2022-09-16T06:07:26;92689.28;;;19.11;64.88
45793;BME280;31495;42.740;22.908;2022-09-16T06:08:31;92693.41;;;19.22;64.91
45793;BME280;31495;42.740;22.908;2022-09-16T06:09:31;92672.72;;;19.16;63.81
45793;BME280;31495;42.740;22.908;2022-09-16T06:10:30;92652.88;;;19.04;64.44
45793;BME280;31495;42.740;22.908;2022-09-16T06:11:30;92646.28;;;19.07;62.88
45793;BME280;31495;42.740;22.908;2022-09-16T06:12:29;92670.59;;;19.18;63.11
45793;BME280;31495;42.740;22.908;2022-09-16T06:13:30;92673.47;;;19.21;63.71
45793;BME280;31495;42.740;22.908;2022-09-16T06:14:29;92643.72;;;19.02;63.99
45793;BME280;31495;42.740;22.908;2022-09-16T06:15:28;92655.72;;;19.08;64.39
45793;BME280;31495;42.740;22.908;2022-09-16T06:16:29;92657.00;;;19.16;64.92
45793;BME280;31495;42.740;22.908;2022-09-16T06:17:32;92620.97;;;18.92;65.22
45793;BME280;31495;42.740;22.908;2022-09-16T06:18:31;92670.06;;;19.21;65.42